Igaracy, Brazil
Current Conditions -  °F | °C
As of 11:00 PM on Sunday 21 Dec 2014 (Local Time) from SBJU Reporting Station
Scattered Clouds Scattered Clouds  
Wind Chill: 84°   Ceiling: Unl
Heat Index: 87°   Visibility: 6mi
Dew Point: 68°   Wind: 3mph
Humidity: 58%   Direction: 260°W
Pressure: 30"   Gusts: NA
Location:  7.18°S, 38.15°W
Report Text: SBJU 220200Z 26003KT 9999 SCT020 29/20 Q1016
Loading
Personal Weather Stations






























Interactive Weather Map New forecast layout! Learn more

10-Day Weather Forecast

Advertisements
Track Severe Weather on mobile